sensor_id;sensor_type;location;lat;lon;timestamp;temperature;humidity
67974;DHT22;54756;51.140;6.952;2023-05-10T00:00:56;12.70;99.90
67974;DHT22;54756;51.140;6.952;2023-05-10T00:02:57;12.70;99.90
67974;DHT22;54756;51.140;6.952;2023-05-10T00:04:57;12.70;99.90
67974;DHT22;54756;51.140;6.952;2023-05-10T00:06:58;12.70;99.90
67974;DHT22;54756;51.140;6.952;2023-05-10T00:08:58;12.70;99.90
67974;DHT22;54756;51.140;6.952;2023-05-10T00:10:59;12.70;99.90
67974;DHT22;54756;51.140;6.952;2023-05-10T00:13:00;12.70;99.90
67974;DHT22;54756;51.140;6.952;2023-05-10T00:15:01;12.70;99.90
67974;DHT22;54756;51.140;6.952;2023-05-10T00:17:01;12.70;99.90
67974;DHT22;54756;51.140;6.952;2023-05-10T00:19:02;12.70;99.90
67974;DHT22;54756;51.140;6.952;2023-05-10T00:21:03;12.70;99.90
67974;DHT22;54756;51.140;6.952;2023-05-10T00:23:03;12.70;99.90
67974;DHT22;54756;51.140;6.952;2023-05-10T00:25:05;12.70;99.90
67974;DHT22;54756;51.140;6.952;2023-05-10T00:27:05;12.70;99.90
67974;DHT22;54756;51.140;6.952;2023-05-10T00:29:06;12.70;99.90
67974;DHT22;54756;51.140;6.952;2023-05-10T00:31:06;12.70;99.90
67974;DHT22;54756;51.140;6.952;2023-05-10T00:33:07;12.80;99.90
67974;DHT22;54756;51.140;6.952;2023-05-10T00:35:08;12.80;99.90
67974;DHT22;54756;51.140;6.952;2023-05-10T00:37:08;12.80;99.90
67974;DHT22;54756;51.140;6.952;2023-05-10T00:39:09;12.80;99.90
67974;DHT22;54756;51.140;6.952;2023-05-10T00:41:09;12.80;99.90
67974;DHT22;54756;51.140;6.952;2023-05-10T00:43:10;12.80;99.90
67974;DHT22;54756;51.140;6.952;2023-05-10T00:45:10;12.80;99.90
67974;DHT22;54756;51.140;6.952;2023-05-10T00:47:12;12.80;99.90
67974;DHT22;54756;51.140;6.952;2023-05-10T00:49:13;12.80;99.90
67974;DHT22;54756;51.140;6.952;2023-05-10T00:51:13;12.80;99.90
67974;DHT22;54756;51.140;6.952;2023-05-10T00:53:15;12.80;99.90
67974;DHT22;54756;51.140;6.952;2023-05-10T00:55:16;12.80;99.90
67974;DHT22;54756;51.140;6.952;2023-05-10T00:57:16;12.80;99.90
67974;DHT22;54756;51.140;6.952;2023-05-10T00:59:17;12.80;99.90
67974;DHT22;54756;51.140;6.952;2023-05-10T01:01:19;12.80;99.90
67974;DHT22;54756;51.140;6.952;2023-05-10T01:03:19;12.80;99.90
67974;DHT22;54756;51.140;6.952;2023-05-10T01:05:21;12.80;99.90
67974;DHT22;54756;51.140;6.952;2023-05-10T01:07:21;12.80;99.90
67974;DHT22;54756;51.140;6.952;2023-05-10T01:09:22;12.80;99.90
67974;DHT22;54756;51.140;6.952;2023-05-10T01:11:23;12.80;99.90
67974;DHT22;54756;51.140;6.952;2023-05-10T01:13:38;12.80;99.90
67974;DHT22;54756;51.140;6.952;2023-05-10T01:15:40;12.80;99.90
67974;DHT22;54756;51.140;6.952;2023-05-10T01:17:43;12.80;99.90
67974;DHT22;54756;51.140;6.952;2023-05-10T01:19:44;12.80;99.90
67974;DHT22;54756;51.140;6.952;2023-05-10T01:21:53;12.80;99.90
67974;DHT22;54756;51.140;6.952;2023-05-10T01:24:17;12.80;99.90
67974;DHT22;54756;51.140;6.952;2023-05-10T01:34:23;12.80;99.90
67974;DHT22;54756;51.140;6.952;2023-05-10T01:41:13;12.80;99.90
67974;DHT22;54756;51.140;6.952;2023-05-10T01:43:22;12.70;99.90
67974;DHT22;54756;51.140;6.952;2023-05-10T01:45:39;12.70;99.90
67974;DHT22;54756;51.140;6.952;2023-05-10T01:47:48;12.70;99.90
67974;DHT22;54756;51.140;6.952;2023-05-10T01:49:53;12.60;99.90
67974;DHT22;54756;51.140;6.952;2023-05-10T01:51:54;12.60;99.90
67974;DHT22;54756;51.140;6.952;2023-05-10T01:54:02;12.60;99.90
67974;DHT22;54756;51.140;6.952;2023-05-10T01:56:04;12.50;99.90
67974;DHT22;54756;51.140;6.952;2023-05-10T01:58:10;12.50;99.90
67974;DHT22;54756;51.140;6.952;2023-05-10T02:00:13;12.50;99.90
67974;DHT22;54756;51.140;6.952;2023-05-10T02:02:15;12.50;99.90
67974;DHT22;54756;51.140;6.952;2023-05-10T02:04:17;12.50;99.90
67974;DHT22;54756;51.140;6.952;2023-05-10T02:06:20;12.40;99.90
67974;DHT22;54756;51.140;6.952;2023-05-10T02:08:22;12.40;99.90
67974;DHT22;54756;51.140;6.952;2023-05-10T02:10:23;12.40;99.90
67974;DHT22;54756;51.140;6.952;2023-05-10T02:12:24;12.40;99.90
67974;DHT22;54756;51.140;6.952;2023-05-10T02:14:26;12.40;99.90
67974;DHT22;54756;51.140;6.952;2023-05-10T02:16:27;12.50;99.90
67974;DHT22;54756;51.140;6.952;2023-05-10T02:18:31;12.40;99.90
67974;DHT22;54756;51.140;6.952;2023-05-10T02:20:33;12.50;99.90
67974;DHT22;54756;51.140;6.952;2023-05-10T02:22:35;12.50;99.90
67974;DHT22;54756;51.140;6.952;2023-05-10T02:24:37;12.50;99.90
67974;DHT22;54756;51.140;6.952;2023-05-10T02:26:39;12.50;99.90
67974;DHT22;54756;51.140;6.952;2023-05-10T02:28:42;12.50;99.90
67974;DHT22;54756;51.140;6.952;2023-05-10T02:30:43;12.40;99.90
67974;DHT22;54756;51.140;6.952;2023-05-10T02:32:44;12.50;99.90
67974;DHT22;54756;51.140;6.952;2023-05-10T02:34:46;12.50;99.90
67974;DHT22;54756;51.140;6.952;2023-05-10T02:36:53;12.50;99.90
67974;DHT22;54756;51.140;6.952;2023-05-10T02:38:54;12.50;99.90
67974;DHT22;54756;51.140;6.952;2023-05-10T02:40:55;12.40;99.90
67974;DHT22;54756;51.140;6.952;2023-05-10T02:42:57;12.40;99.90
67974;DHT22;54756;51.140;6.952;2023-05-10T02:45:07;12.40;99.90
67974;DHT22;54756;51.140;6.952;2023-05-10T02:47:08;12.50;99.90
67974;DHT22;54756;51.140;6.952;2023-05-10T02:49:08;12.40;99.90
67974;DHT22;54756;51.140;6.952;2023-05-10T02:51:09;12.50;99.90
67974;DHT22;54756;51.140;6.952;2023-05-10T02:53:19;12.50;99.90
67974;DHT22;54756;51.140;6.952;2023-05-10T02:55:24;12.50;99.90
67974;DHT22;54756;51.140;6.952;2023-05-10T02:57:28;12.40;99.90
67974;DHT22;54756;51.140;6.952;2023-05-10T02:59:30;12.50;99.90
67974;DHT22;54756;51.140;6.952;2023-05-10T03:01:32;12.50;99.90
67974;DHT22;54756;51.140;6.952;2023-05-10T03:03:33;12.50;99.90
67974;DHT22;54756;51.140;6.952;2023-05-10T03:05:33;12.50;99.90
67974;DHT22;54756;51.140;6.952;2023-05-10T03:07:34;12.60;99.90
67974;DHT22;54756;51.140;6.952;2023-05-10T03:09:35;12.60;99.90
67974;DHT22;54756;51.140;6.952;2023-05-10T03:12:04;12.60;99.90
67974;DHT22;54756;51.140;6.952;2023-05-10T03:16:46;12.60;99.90
67974;DHT22;54756;51.140;6.952;2023-05-10T03:18:53;12.70;99.90
67974;DHT22;54756;51.140;6.952;2023-05-10T03:21:02;12.60;99.90
67974;DHT22;54756;51.140;6.952;2023-05-10T03:23:13;12.60;99.90
67974;DHT22;54756;51.140;6.952;2023-05-10T03:25:19;12.60;99.90
67974;DHT22;54756;51.140;6.952;2023-05-10T03:27:21;12.60;99.90
67974;DHT22;54756;51.140;6.952;2023-05-10T03:29:23;12.70;99.90
67974;DHT22;54756;51.140;6.952;2023-05-10T03:31:24;12.60;99.90
67974;DHT22;54756;51.140;6.952;2023-05-10T03:33:25;12.70;99.90
67974;DHT22;54756;51.140;6.952;2023-05-10T03:35:26;12.70;99.90
67974;DHT22;54756;51.140;6.952;2023-05-10T03:37:26;12.70;99.90
67974;DHT22;54756;51.140;6.952;2023-05-10T03:39:27;12.60;99.90
67974;DHT22;54756;51.140;6.952;2023-05-10T03:41:27;12.70;99.90
67974;DHT22;54756;51.140;6.952;2023-05-10T03:43:28;12.60;99.90
67974;DHT22;54756;51.140;6.952;2023-05-10T03:45:29;12.60;99.90
67974;DHT22;54756;51.140;6.952;2023-05-10T03:47:30;12.60;99.90
67974;DHT22;54756;51.140;6.952;2023-05-10T03:49:31;12.70;99.90
67974;DHT22;54756;51.140;6.952;2023-05-10T03:51:32;12.60;99.90
67974;DHT22;54756;51.140;6.952;2023-05-10T03:53:33;12.70;99.90
67974;DHT22;54756;51.140;6.952;2023-05-10T03:55:33;12.70;99.90
67974;DHT22;54756;51.140;6.952;2023-05-10T03:57:36;12.70;99.90
67974;DHT22;54756;51.140;6.952;2023-05-10T03:59:37;12.70;99.90
67974;DHT22;54756;51.140;6.952;2023-05-10T04:01:37;12.70;99.90
67974;DHT22;54756;51.140;6.952;2023-05-10T04:03:38;12.70;99.90
67974;DHT22;54756;51.140;6.952;2023-05-10T04:05:38;12.80;99.90
67974;DHT22;54756;51.140;6.952;2023-05-10T04:07:39;12.80;99.90
67974;DHT22;54756;51.140;6.952;2023-05-10T04:09:40;12.80;99.90
67974;DHT22;54756;51.140;6.952;2023-05-10T04:11:40;12.80;99.90
67974;DHT22;54756;51.140;6.952;2023-05-10T04:13:41;12.80;99.90
67974;DHT22;54756;51.140;6.952;2023-05-10T04:15:43;12.80;99.90
67974;DHT22;54756;51.140;6.952;2023-05-10T04:17:44;12.90;99.90
67974;DHT22;54756;51.140;6.952;2023-05-10T04:19:44;12.90;99.90
67974;DHT22;54756;51.140;6.952;2023-05-10T04:21:45;12.90;99.90
67974;DHT22;54756;51.140;6.952;2023-05-10T04:23:45;12.90;99.90
67974;DHT22;54756;51.140;6.952;2023-05-10T04:25:46;13.00;99.90
67974;DHT22;54756;51.140;6.952;2023-05-10T04:27:46;13.00;99.90
67974;DHT22;54756;51.140;6.952;2023-05-10T04:29:47;13.00;99.90
67974;DHT22;54756;51.140;6.952;2023-05-10T04:31:47;13.00;99.90
67974;DHT22;54756;51.140;6.952;2023-05-10T04:33:49;13.00;99.90
67974;DHT22;54756;51.140;6.952;2023-05-10T04:35:50;13.00;99.90
67974;DHT22;54756;51.140;6.952;2023-05-10T04:37:50;13.00;99.90
67974;DHT22;54756;51.140;6.952;2023-05-10T04:39:51;13.10;99.90
67974;DHT22;54756;51.140;6.952;2023-05-10T04:41:51;13.10;99.90
67974;DHT22;54756;51.140;6.952;2023-05-10T04:43:52;13.10;99.90
67974;DHT22;54756;51.140;6.952;2023-05-10T04:45:52;13.20;99.90
67974;DHT22;54756;51.140;6.952;2023-05-10T04:47:56;13.20;99.90
67974;DHT22;54756;51.140;6.952;2023-05-10T04:49:56;13.20;99.90
67974;DHT22;54756;51.140;6.952;2023-05-10T04:51:57;13.30;99.90
67974;DHT22;54756;51.140;6.952;2023-05-10T04:53:58;13.30;99.90
67974;DHT22;54756;51.140;6.952;2023-05-10T04:55:58;13.30;99.90
67974;DHT22;54756;51.140;6.952;2023-05-10T04:57:59;13.30;99.90
67974;DHT22;54756;51.140;6.952;2023-05-10T05:00:00;13.30;99.90
67974;DHT22;54756;51.140;6.952;2023-05-10T05:02:00;13.40;99.90
67974;DHT22;54756;51.140;6.952;2023-05-10T05:04:01;13.30;99.90
67974;DHT22;54756;51.140;6.952;2023-05-10T05:06:02;13.30;99.90
67974;DHT22;54756;51.140;6.952;2023-05-10T05:08:03;13.40;99.90
67974;DHT22;54756;51.140;6.952;2023-05-10T05:10:08;13.40;99.90
67974;DHT22;54756;51.140;6.952;2023-05-10T05:12:08;13.40;99.90
67974;DHT22;54756;51.140;6.952;2023-05-10T05:14:14;13.40;99.90
67974;DHT22;54756;51.140;6.952;2023-05-10T05:16:14;13.40;99.90
67974;DHT22;54756;51.140;6.952;2023-05-10T05:18:15;13.50;99.90
67974;DHT22;54756;51.140;6.952;2023-05-10T05:20:15;13.50;99.90
67974;DHT22;54756;51.140;6.952;2023-05-10T05:22:16;13.50;99.90
67974;DHT22;54756;51.140;6.952;2023-05-10T05:24:17;13.60;99.90
67974;DHT22;54756;51.140;6.952;2023-05-10T05:26:17;13.70;99.90
67974;DHT22;54756;51.140;6.952;2023-05-10T05:28:19;13.70;99.90
67974;DHT22;54756;51.140;6.952;2023-05-10T05:30:19;13.80;99.90
67974;DHT22;54756;51.140;6.952;2023-05-10T05:32:20;13.80;99.90
67974;DHT22;54756;51.140;6.952;2023-05-10T05:34:21;13.80;99.90
67974;DHT22;54756;51.140;6.952;2023-05-10T05:36:22;13.90;99.90
67974;DHT22;54756;51.140;6.952;2023-05-10T05:38:22;13.80;99.90
67974;DHT22;54756;51.140;6.952;2023-05-10T05:40:23;13.80;99.90
67974;DHT22;54756;51.140;6.952;2023-05-10T05:42:24;13.70;99.90
67974;DHT22;54756;51.140;6.952;2023-05-10T05:44:25;13.70;99.90
67974;DHT22;54756;51.140;6.952;2023-05-10T05:46:25;13.70;99.90
67974;DHT22;54756;51.140;6.952;2023-05-10T05:48:26;13.60;99.90
67974;DHT22;54756;51.140;6.952;2023-05-10T05:50:26;13.60;99.90
67974;DHT22;54756;51.140;6.952;2023-05-10T05:52:27;13.60;99.90
67974;DHT22;54756;51.140;6.952;2023-05-10T05:54:28;13.50;99.90
67974;DHT22;54756;51.140;6.952;2023-05-10T05:56:28;13.50;99.90
67974;DHT22;54756;51.140;6.952;2023-05-10T05:58:29;13.50;99.90
67974;DHT22;54756;51.140;6.952;2023-05-10T06:00:29;13.50;99.90
67974;DHT22;54756;51.140;6.952;2023-05-10T06:02:30;13.40;99.90
67974;DHT22;54756;51.140;6.952;2023-05-10T06:04:31;13.40;99.90
67974;DHT22;54756;51.140;6.952;2023-05-10T06:06:31;13.40;99.90
67974;DHT22;54756;51.140;6.952;2023-05-10T06:08:32;13.40;99.90
67974;DHT22;54756;51.140;6.952;2023-05-10T06:10:34;13.50;99.90
67974;DHT22;54756;51.140;6.952;2023-05-10T06:12:35;13.50;99.90
67974;DHT22;54756;51.140;6.952;2023-05-10T06:14:36;13.50;99.90
67974;DHT22;54756;51.140;6.952;2023-05-10T06:16:36;13.60;99.90
67974;DHT22;54756;51.140;6.952;2023-05-10T06:18:37;13.60;99.90
67974;DHT22;54756;51.140;6.952;2023-05-10T06:20:37;13.60;99.90
67974;DHT22;54756;51.140;6.952;2023-05-10T06:22:38;13.70;99.90
67974;DHT22;54756;51.140;6.952;2023-05-10T06:24:38;13.70;99.90
67974;DHT22;54756;51.140;6.952;2023-05-10T06:26:39;13.70;99.90
67974;DHT22;54756;51.140;6.952;2023-05-10T06:28:40;13.70;99.90
67974;DHT22;54756;51.140;6.952;2023-05-10T06:30:41;13.70;99.90
67974;DHT22;54756;51.140;6.952;2023-05-10T06:32:41;13.70;99.90
67974;DHT22;54756;51.140;6.952;2023-05-10T06:34:44;13.70;99.90
67974;DHT22;54756;51.140;6.952;2023-05-10T06:36:45;13.70;99.90
67974;DHT22;54756;51.140;6.952;2023-05-10T06:38:45;13.60;99.90
67974;DHT22;54756;51.140;6.952;2023-05-10T06:40:46;13.70;99.90
67974;DHT22;54756;51.140;6.952;2023-05-10T06:42:47;13.70;99.90
67974;DHT22;54756;51.140;6.952;2023-05-10T06:44:48;13.70;99.90
67974;DHT22;54756;51.140;6.952;2023-05-10T06:46:48;13.60;99.90
67974;DHT22;54756;51.140;6.952;2023-05-10T06:48:50;13.60;99.90
67974;DHT22;54756;51.140;6.952;2023-05-10T06:50:50;13.60;99.90
67974;DHT22;54756;51.140;6.952;2023-05-10T06:52:51;13.60;99.90
67974;DHT22;54756;51.140;6.952;2023-05-10T06:54:51;13.50;99.90
67974;DHT22;54756;51.140;6.952;2023-05-10T06:56:52;13.50;99.90
67974;DHT22;54756;51.140;6.952;2023-05-10T06:58:53;13.40;99.90
67974;DHT22;54756;51.140;6.952;2023-05-10T07:00:54;13.40;99.90
67974;DHT22;54756;51.140;6.952;2023-05-10T07:02:54;13.30;99.90
67974;DHT22;54756;51.140;6.952;2023-05-10T07:04:55;13.30;99.90
67974;DHT22;54756;51.140;6.952;2023-05-10T07:06:55;13.30;99.90
67974;DHT22;54756;51.140;6.952;2023-05-10T07:08:56;13.40;99.90
67974;DHT22;54756;51.140;6.952;2023-05-10T07:11:05;13.60;99.90
67974;DHT22;54756;51.140;6.952;2023-05-10T07:13:07;13.80;99.90
67974;DHT22;54756;51.140;6.952;2023-05-10T07:15:08;13.90;99.90
67974;DHT22;54756;51.140;6.952;2023-05-10T07:17:09;14.10;99.90
67974;DHT22;54756;51.140;6.952;2023-05-10T07:19:10;14.20;99.90
67974;DHT22;54756;51.140;6.952;2023-05-10T07:21:10;14.40;99.90
67974;DHT22;54756;51.140;6.952;2023-05-10T07:23:11;14.50;99.90
67974;DHT22;54756;51.140;6.952;2023-05-10T07:25:11;14.60;99.90
67974;DHT22;54756;51.140;6.952;2023-05-10T07:27:12;14.60;99.90
67974;DHT22;54756;51.140;6.952;2023-05-10T07:29:13;14.70;99.90
67974;DHT22;54756;51.140;6.952;2023-05-10T07:31:13;14.70;99.90
67974;DHT22;54756;51.140;6.952;2023-05-10T07:33:14;14.80;99.90
67974;DHT22;54756;51.140;6.952;2023-05-10T07:35:16;14.90;99.90
67974;DHT22;54756;51.140;6.952;2023-05-10T07:37:16;14.90;99.90
67974;DHT22;54756;51.140;6.952;2023-05-10T07:39:17;14.90;99.90
67974;DHT22;54756;51.140;6.952;2023-05-10T07:41:17;14.90;99.90
67974;DHT22;54756;51.140;6.952;2023-05-10T07:43:18;15.00;99.90
67974;DHT22;54756;51.140;6.952;2023-05-10T07:45:18;15.00;99.90
67974;DHT22;54756;51.140;6.952;2023-05-10T07:47:19;15.00;99.90
67974;DHT22;54756;51.140;6.952;2023-05-10T07:49:19;15.10;99.90
67974;DHT22;54756;51.140;6.952;2023-05-10T07:51:20;15.10;99.90
67974;DHT22;54756;51.140;6.952;2023-05-10T07:53:21;15.20;99.90
67974;DHT22;54756;51.140;6.952;2023-05-10T07:55:21;15.20;99.90
67974;DHT22;54756;51.140;6.952;2023-05-10T07:57:22;15.30;99.90
67974;DHT22;54756;51.140;6.952;2023-05-10T07:59:23;15.40;99.90
67974;DHT22;54756;51.140;6.952;2023-05-10T08:01:23;15.50;99.90
67974;DHT22;54756;51.140;6.952;2023-05-10T08:03:24;15.60;99.90
67974;DHT22;54756;51.140;6.952;2023-05-10T08:05:25;15.70;99.90
67974;DHT22;54756;51.140;6.952;2023-05-10T08:07:25;15.80;99.90
67974;DHT22;54756;51.140;6.952;2023-05-10T08:09:26;15.80;99.90
67974;DHT22;54756;51.140;6.952;2023-05-10T08:11:26;15.90;99.90
67974;DHT22;54756;51.140;6.952;2023-05-10T08:13:30;15.80;99.90
67974;DHT22;54756;51.140;6.952;2023-05-10T08:15:31;15.70;99.90
67974;DHT22;54756;51.140;6.952;2023-05-10T08:17:32;15.60;99.90
67974;DHT22;54756;51.140;6.952;2023-05-10T08:19:32;15.60;99.90
67974;DHT22;54756;51.140;6.952;2023-05-10T08:21:33;15.60;99.90
67974;DHT22;54756;51.140;6.952;2023-05-10T08:23:34;15.50;99.90
67974;DHT22;54756;51.140;6.952;2023-05-10T08:25:34;15.50;99.90
67974;DHT22;54756;51.140;6.952;2023-05-10T08:27:35;15.50;99.90
67974;DHT22;54756;51.140;6.952;2023-05-10T08:29:36;15.60;99.90
67974;DHT22;54756;51.140;6.952;2023-05-10T08:31:37;15.70;99.90
67974;DHT22;54756;51.140;6.952;2023-05-10T08:33:37;15.80;99.90
67974;DHT22;54756;51.140;6.952;2023-05-10T08:35:38;15.80;99.90
67974;DHT22;54756;51.140;6.952;2023-05-10T08:37:38;15.80;99.90
67974;DHT22;54756;51.140;6.952;2023-05-10T08:39:39;15.80;99.90
67974;DHT22;54756;51.140;6.952;2023-05-10T08:41:40;15.80;99.90
67974;DHT22;54756;51.140;6.952;2023-05-10T08:43:44;15.90;99.90
67974;DHT22;54756;51.140;6.952;2023-05-10T08:45:46;16.10;99.90
67974;DHT22;54756;51.140;6.952;2023-05-10T08:47:47;16.20;99.90
67974;DHT22;54756;51.140;6.952;2023-05-10T08:49:48;16.30;99.90
67974;DHT22;54756;51.140;6.952;2023-05-10T08:51:54;16.30;99.90
67974;DHT22;54756;51.140;6.952;2023-05-10T08:53:55;16.40;99.90
67974;DHT22;54756;51.140;6.952;2023-05-10T08:55:56;16.50;99.80
67974;DHT22;54756;51.140;6.952;2023-05-10T08:57:57;16.60;99.80
67974;DHT22;54756;51.140;6.952;2023-05-10T08:59:59;16.80;99.60
67974;DHT22;54756;51.140;6.952;2023-05-10T09:02:01;17.00;98.70
67974;DHT22;54756;51.140;6.952;2023-05-10T09:04:02;17.10;97.20
67974;DHT22;54756;51.140;6.952;2023-05-10T09:06:04;17.20;97.80
67974;DHT22;54756;51.140;6.952;2023-05-10T09:08:06;17.30;97.30
67974;DHT22;54756;51.140;6.952;2023-05-10T09:10:07;17.20;97.40
67974;DHT22;54756;51.140;6.952;2023-05-10T09:12:09;17.00;97.60
67974;DHT22;54756;51.140;6.952;2023-05-10T09:14:12;16.90;97.90
67974;DHT22;54756;51.140;6.952;2023-05-10T09:16:13;16.70;97.90
67974;DHT22;54756;51.140;6.952;2023-05-10T09:18:14;16.50;97.70
67974;DHT22;54756;51.140;6.952;2023-05-10T09:20:14;16.30;97.90
67974;DHT22;54756;51.140;6.952;2023-05-10T09:22:15;16.40;98.60
67974;DHT22;54756;51.140;6.952;2023-05-10T09:24:16;16.50;98.80
67974;DHT22;54756;51.140;6.952;2023-05-10T09:26:17;16.60;98.30
67974;DHT22;54756;51.140;6.952;2023-05-10T09:28:22;16.80;98.70
67974;DHT22;54756;51.140;6.952;2023-05-10T09:30:28;16.90;98.80
67974;DHT22;54756;51.140;6.952;2023-05-10T09:34:41;16.90;97.10
67974;DHT22;54756;51.140;6.952;2023-05-10T09:36:56;16.70;97.50
67974;DHT22;54756;51.140;6.952;2023-05-10T09:38:57;16.50;98.00
67974;DHT22;54756;51.140;6.952;2023-05-10T09:40:58;16.30;98.80
67974;DHT22;54756;51.140;6.952;2023-05-10T09:43:04;16.10;98.60
67974;DHT22;54756;51.140;6.952;2023-05-10T09:45:07;15.70;99.40
67974;DHT22;54756;51.140;6.952;2023-05-10T09:47:07;15.30;99.90
67974;DHT22;54756;51.140;6.952;2023-05-10T09:49:08;14.90;99.90
67974;DHT22;54756;51.140;6.952;2023-05-10T09:51:08;14.60;99.90
67974;DHT22;54756;51.140;6.952;2023-05-10T09:53:09;14.30;99.90
67974;DHT22;54756;51.140;6.952;2023-05-10T09:55:15;14.20;99.90
67974;DHT22;54756;51.140;6.952;2023-05-10T09:57:23;14.00;99.90
67974;DHT22;54756;51.140;6.952;2023-05-10T09:59:27;13.90;99.90
67974;DHT22;54756;51.140;6.952;2023-05-10T10:01:28;13.90;99.90
67974;DHT22;54756;51.140;6.952;2023-05-10T10:03:30;13.90;99.90
67974;DHT22;54756;51.140;6.952;2023-05-10T10:05:32;14.10;99.90
67974;DHT22;54756;51.140;6.952;2023-05-10T10:07:32;14.20;99.90
67974;DHT22;54756;51.140;6.952;2023-05-10T10:09:34;14.40;99.90
67974;DHT22;54756;51.140;6.952;2023-05-10T10:11:37;14.70;99.90
67974;DHT22;54756;51.140;6.952;2023-05-10T10:13:38;14.90;99.90
67974;DHT22;54756;51.140;6.952;2023-05-10T10:15:38;15.00;99.90
67974;DHT22;54756;51.140;6.952;2023-05-10T10:17:39;15.00;99.90
67974;DHT22;54756;51.140;6.952;2023-05-10T10:19:41;14.90;99.90
67974;DHT22;54756;51.140;6.952;2023-05-10T10:21:42;14.80;99.90
67974;DHT22;54756;51.140;6.952;2023-05-10T10:23:42;14.70;99.90
67974;DHT22;54756;51.140;6.952;2023-05-10T10:25:44;14.60;99.90
67974;DHT22;54756;51.140;6.952;2023-05-10T10:27:49;14.70;99.90
67974;DHT22;54756;51.140;6.952;2023-05-10T10:32:26;15.20;99.90
67974;DHT22;54756;51.140;6.952;2023-05-10T10:34:29;15.40;99.90
67974;DHT22;54756;51.140;6.952;2023-05-10T10:36:30;15.50;99.90
67974;DHT22;54756;51.140;6.952;2023-05-10T10:38:37;15.50;99.90
67974;DHT22;54756;51.140;6.952;2023-05-10T10:40:38;15.50;99.90
67974;DHT22;54756;51.140;6.952;2023-05-10T10:42:46;15.50;99.90
67974;DHT22;54756;51.140;6.952;2023-05-10T10:44:47;15.60;99.90
67974;DHT22;54756;51.140;6.952;2023-05-10T10:49:09;16.10;99.90
67974;DHT22;54756;51.140;6.952;2023-05-10T10:51:10;16.50;99.90
67974;DHT22;54756;51.140;6.952;2023-05-10T10:53:13;16.90;99.90
67974;DHT22;54756;51.140;6.952;2023-05-10T10:55:18;17.50;99.70
67974;DHT22;54756;51.140;6.952;2023-05-10T10:57:20;18.20;99.90
67974;DHT22;54756;51.140;6.952;2023-05-10T10:59:28;18.80;98.60
67974;DHT22;54756;51.140;6.952;2023-05-10T11:01:33;19.30;96.70
67974;DHT22;54756;51.140;6.952;2023-05-10T11:03:34;19.60;96.80
67974;DHT22;54756;51.140;6.952;2023-05-10T11:05:39;19.50;92.70
67974;DHT22;54756;51.140;6.952;2023-05-10T11:07:58;19.20;92.00
67974;DHT22;54756;51.140;6.952;2023-05-10T11:10:04;19.00;89.80
67974;DHT22;54756;51.140;6.952;2023-05-10T11:12:08;18.80;92.80
67974;DHT22;54756;51.140;6.952;2023-05-10T11:14:09;18.80;94.00
67974;DHT22;54756;51.140;6.952;2023-05-10T11:16:20;19.00;91.30
67974;DHT22;54756;51.140;6.952;2023-05-10T11:18:28;19.20;91.70
67974;DHT22;54756;51.140;6.952;2023-05-10T11:20:39;19.40;86.40
67974;DHT22;54756;51.140;6.952;2023-05-10T11:22:50;19.50;89.30
67974;DHT22;54756;51.140;6.952;2023-05-10T11:24:57;19.50;88.90
67974;DHT22;54756;51.140;6.952;2023-05-10T11:26:59;19.60;82.20
67974;DHT22;54756;51.140;6.952;2023-05-10T11:29:00;19.60;83.00
67974;DHT22;54756;51.140;6.952;2023-05-10T11:31:02;19.50;83.30
67974;DHT22;54756;51.140;6.952;2023-05-10T11:33:03;19.40;82.60
67974;DHT22;54756;51.140;6.952;2023-05-10T11:35:11;19.40;78.00
67974;DHT22;54756;51.140;6.952;2023-05-10T11:37:11;19.50;79.10
67974;DHT22;54756;51.140;6.952;2023-05-10T11:39:12;19.50;81.90
67974;DHT22;54756;51.140;6.952;2023-05-10T11:41:13;19.50;81.90
67974;DHT22;54756;51.140;6.952;2023-05-10T11:43:13;19.50;78.40
67974;DHT22;54756;51.140;6.952;2023-05-10T11:45:14;19.50;78.60
67974;DHT22;54756;51.140;6.952;2023-05-10T11:47:15;19.40;80.00
67974;DHT22;54756;51.140;6.952;2023-05-10T11:49:15;19.40;82.70
67974;DHT22;54756;51.140;6.952;2023-05-10T11:51:23;19.20;78.50
67974;DHT22;54756;51.140;6.952;2023-05-10T11:53:28;18.90;78.40
67974;DHT22;54756;51.140;6.952;2023-05-10T11:55:29;18.60;82.30
67974;DHT22;54756;51.140;6.952;2023-05-10T11:57:33;18.30;79.80
67974;DHT22;54756;51.140;6.952;2023-05-10T11:59:33;18.00;82.70
67974;DHT22;54756;51.140;6.952;2023-05-10T12:01:36;17.60;87.20
67974;DHT22;54756;51.140;6.952;2023-05-10T12:03:37;17.40;89.50
67974;DHT22;54756;51.140;6.952;2023-05-10T12:05:38;17.10;90.00
67974;DHT22;54756;51.140;6.952;2023-05-10T12:07:39;16.80;91.20
67974;DHT22;54756;51.140;6.952;2023-05-10T12:12:05;16.40;93.70
67974;DHT22;54756;51.140;6.952;2023-05-10T12:14:06;16.30;94.20
67974;DHT22;54756;51.140;6.952;2023-05-10T12:16:30;16.20;94.60
67974;DHT22;54756;51.140;6.952;2023-05-10T12:18:31;16.20;95.20
67974;DHT22;54756;51.140;6.952;2023-05-10T12:20:32;16.20;95.50
67974;DHT22;54756;51.140;6.952;2023-05-10T12:22:33;16.30;96.40
67974;DHT22;54756;51.140;6.952;2023-05-10T12:24:36;16.60;96.70
67974;DHT22;54756;51.140;6.952;2023-05-10T12:26:38;16.90;95.90
67974;DHT22;54756;51.140;6.952;2023-05-10T12:28:39;17.30;95.90
67974;DHT22;54756;51.140;6.952;2023-05-10T12:30:40;17.80;95.40
67974;DHT22;54756;51.140;6.952;2023-05-10T12:32:41;18.20;93.10
67974;DHT22;54756;51.140;6.952;2023-05-10T12:34:41;18.70;91.60
67974;DHT22;54756;51.140;6.952;2023-05-10T12:36:42;19.20;89.50
67974;DHT22;54756;51.140;6.952;2023-05-10T12:38:44;19.50;83.30
67974;DHT22;54756;51.140;6.952;2023-05-10T12:40:47;19.70;84.70
67974;DHT22;54756;51.140;6.952;2023-05-10T12:42:48;19.80;85.00
67974;DHT22;54756;51.140;6.952;2023-05-10T12:44:49;19.80;82.90
67974;DHT22;54756;51.140;6.952;2023-05-10T12:46:49;19.60;82.20
67974;DHT22;54756;51.140;6.952;2023-05-10T12:48:50;19.60;82.20
67974;DHT22;54756;51.140;6.952;2023-05-10T12:50:55;19.60;79.10
67974;DHT22;54756;51.140;6.952;2023-05-10T12:52:55;19.70;77.30
67974;DHT22;54756;51.140;6.952;2023-05-10T12:54:56;20.00;77.80
67974;DHT22;54756;51.140;6.952;2023-05-10T12:56:56;20.30;75.40
67974;DHT22;54756;51.140;6.952;2023-05-10T12:58:57;20.60;72.00
67974;DHT22;54756;51.140;6.952;2023-05-10T13:00:59;20.80;69.90
67974;DHT22;54756;51.140;6.952;2023-05-10T13:02:59;20.90;67.50
67974;DHT22;54756;51.140;6.952;2023-05-10T13:05:00;20.70;65.50
67974;DHT22;54756;51.140;6.952;2023-05-10T13:07:02;20.50;69.50
67974;DHT22;54756;51.140;6.952;2023-05-10T13:09:02;20.20;71.20
67974;DHT22;54756;51.140;6.952;2023-05-10T13:11:05;20.10;74.30
67974;DHT22;54756;51.140;6.952;2023-05-10T13:13:06;20.30;74.40
67974;DHT22;54756;51.140;6.952;2023-05-10T13:15:08;20.40;74.40